Terminal Aerodrome Forecast
Issued by NWS Portland, ME

Current Version | Previous Version | Text Only | Print | Product List | Glossary On
Versions: 1 2 3 4 5 6 7 8 9 10 11 12 13 14 15 16 17 18
000 FTUS41 KGYX 011120 TAFCON TAF KCON 011120Z 0112/0212 34006KT P6SM SKC FM011400 32011G18KT P6SM SKC FM012300 32005KT P6SM SKC FM020800 00000KT P6SM BKN100=

USA.gov is the U.S. government's official web portal to all federal, state and local government web resources and services.